createdAt,value
2022-12-23T00:00:52.269Z,95.83
2022-12-23T00:01:52.416Z,96.14
2022-12-23T00:02:52.513Z,95.52
2022-12-23T00:03:52.239Z,96.34
2022-12-23T00:04:52.259Z,95.72
2022-12-23T00:05:52.321Z,95.72
2022-12-23T00:06:52.258Z,95.83
2022-12-23T00:07:52.215Z,96.03
2022-12-23T00:08:52.168Z,95.72
2022-12-23T00:09:52.185Z,95.72
2022-12-23T00:10:52.155Z,95.93
2022-12-23T00:11:52.153Z,95.72
2022-12-23T00:12:52.180Z,95.83
2022-12-23T00:13:52.172Z,96.08
2022-12-23T00:14:52.201Z,96.14
2022-12-23T00:15:52.352Z,96.65
2022-12-23T00:16:52.302Z,96.95
2022-12-23T00:17:52.147Z,96.59
2022-12-23T00:18:52.111Z,96.80
2022-12-23T00:19:52.220Z,97.10
2022-12-23T00:20:52.285Z,97.47
2022-12-23T00:21:52.095Z,97.20
2022-12-23T00:22:52.542Z,97.52
2022-12-23T00:23:52.059Z,97.41
2022-12-23T00:24:52.089Z,97.31
2022-12-23T00:25:52.113Z,97.41
2022-12-23T00:26:52.010Z,97.52
2022-12-23T00:27:52.102Z,97.52
2022-12-23T00:28:52.019Z,97.27
2022-12-23T00:29:52.086Z,97.41
2022-12-23T00:30:52.022Z,97.52
2022-12-23T00:31:52.025Z,97.41
2022-12-23T00:32:52.000Z,97.31
2022-12-23T00:33:51.974Z,97.41
2022-12-23T00:34:52.838Z,97.72
2022-12-23T00:35:51.985Z,97.52
2022-12-23T00:36:51.971Z,97.52
2022-12-23T00:37:51.919Z,97.52
2022-12-23T00:38:52.032Z,97.41
2022-12-23T00:39:54.910Z,97.41
2022-12-23T00:40:52.987Z,97.62
2022-12-23T00:41:52.791Z,97.10
2022-12-23T00:42:51.912Z,97.77
2022-12-23T00:43:51.806Z,97.72
2022-12-23T00:44:51.858Z,97.72
2022-12-23T00:45:51.970Z,97.82
2022-12-23T00:46:51.819Z,97.77
2022-12-23T00:47:51.779Z,97.82
2022-12-23T00:48:51.830Z,97.82
2022-12-23T00:49:51.802Z,97.82
2022-12-23T00:50:51.895Z,97.72
2022-12-23T00:51:51.770Z,97.82
2022-12-23T00:52:51.735Z,98.13
2022-12-23T00:53:51.751Z,97.41
2022-12-23T00:54:51.721Z,97.62
2022-12-23T00:55:51.755Z,97.72
2022-12-23T00:56:51.689Z,97.72
2022-12-23T00:57:51.859Z,97.41
2022-12-23T00:58:51.682Z,97.52
2022-12-23T00:59:51.703Z,97.52
2022-12-23T01:00:51.722Z,97.52
2022-12-23T01:01:51.821Z,97.52
2022-12-23T01:02:51.757Z,97.52
2022-12-23T01:03:51.639Z,97.31
2022-12-23T01:04:52.314Z,97.72
2022-12-23T01:05:51.619Z,97.62
2022-12-23T01:06:51.671Z,97.52
2022-12-23T01:07:51.563Z,97.10
2022-12-23T01:08:51.630Z,97.06
2022-12-23T01:09:51.610Z,97.20
2022-12-23T01:10:51.555Z,96.90
2022-12-23T01:11:52.277Z,96.59
2022-12-23T01:12:51.577Z,96.69
2022-12-23T01:13:51.562Z,96.85
2022-12-23T01:14:51.569Z,96.80
2022-12-23T01:15:51.532Z,96.90
2022-12-23T01:16:51.655Z,96.65
2022-12-23T01:17:51.612Z,97.06
2022-12-23T01:18:51.444Z,96.65
2022-12-23T01:19:51.755Z,96.69
2022-12-23T01:20:51.473Z,96.55
2022-12-23T01:21:51.496Z,96.23
2022-12-23T01:22:51.445Z,96.34
2022-12-23T01:23:51.405Z,96.34
2022-12-23T01:24:51.464Z,96.23
2022-12-23T01:25:51.452Z,95.83
2022-12-23T01:26:51.348Z,96.23
2022-12-23T01:27:51.427Z,95.83
2022-12-23T01:28:51.378Z,95.62
2022-12-23T01:29:51.698Z,96.14
2022-12-23T01:30:51.438Z,95.72
2022-12-23T01:31:51.477Z,95.93
2022-12-23T01:32:51.336Z,95.52
2022-12-23T01:33:51.354Z,95.52
2022-12-23T01:34:51.361Z,95.72
2022-12-23T01:35:51.406Z,95.62
2022-12-23T01:36:51.484Z,95.83
2022-12-23T01:37:51.331Z,95.67
2022-12-23T01:38:51.284Z,95.97
2022-12-23T01:39:51.324Z,96.18
2022-12-23T01:40:51.342Z,95.97
2022-12-23T01:41:51.252Z,96.18
2022-12-23T01:42:51.219Z,96.69
2022-12-23T01:43:52.235Z,96.08
2022-12-23T01:44:51.258Z,95.97
2022-12-23T01:45:51.295Z,96.39
2022-12-23T01:46:51.210Z,96.59
2022-12-23T01:47:51.193Z,96.18
2022-12-23T01:48:51.322Z,95.97
2022-12-23T01:49:51.167Z,96.28
2022-12-23T01:50:51.226Z,96.28
2022-12-23T01:51:51.158Z,96.80
2022-12-23T01:52:51.178Z,96.69
2022-12-23T01:53:51.163Z,96.28
2022-12-23T01:54:51.111Z,96.39
2022-12-23T01:55:51.443Z,96.44
2022-12-23T01:56:51.117Z,96.39
2022-12-23T01:57:51.108Z,96.48
2022-12-23T01:58:51.150Z,96.39
2022-12-23T01:59:51.118Z,96.75
2022-12-23T02:00:51.227Z,96.39
2022-12-23T02:01:51.089Z,96.08
2022-12-23T02:02:51.172Z,96.28
2022-12-23T02:03:51.045Z,96.28
2022-12-23T02:04:51.064Z,96.18
2022-12-23T02:05:51.046Z,96.34
2022-12-23T02:06:51.011Z,96.18
2022-12-23T02:07:50.992Z,96.34
2022-12-23T02:08:51.009Z,96.18
2022-12-23T02:09:50.978Z,96.18
2022-12-23T02:10:51.930Z,96.03
2022-12-23T02:11:51.057Z,96.14
2022-12-23T02:12:51.012Z,96.18
2022-12-23T02:13:51.010Z,96.18
2022-12-23T02:14:50.984Z,96.28
2022-12-23T02:15:50.908Z,96.14
2022-12-23T02:16:51.024Z,96.59
2022-12-23T02:17:50.873Z,96.34
2022-12-23T02:18:50.890Z,96.80
2022-12-23T02:19:50.879Z,96.39
2022-12-23T02:20:50.974Z,96.08
2022-12-23T02:21:50.963Z,96.28
2022-12-23T02:22:50.884Z,96.69
2022-12-23T02:23:50.900Z,96.80
2022-12-23T02:24:50.879Z,96.69
2022-12-23T02:25:50.816Z,96.69
2022-12-23T02:26:50.852Z,97.20
2022-12-23T02:27:50.850Z,96.90
2022-12-23T02:28:50.775Z,97.00
2022-12-23T02:29:50.808Z,96.80
2022-12-23T02:30:50.810Z,96.80
2022-12-23T02:31:50.800Z,97.00
2022-12-23T02:32:50.806Z,97.20
2022-12-23T02:33:50.705Z,97.00
2022-12-23T02:34:50.733Z,97.52
2022-12-23T02:35:50.785Z,97.52
2022-12-23T02:36:50.765Z,97.41
2022-12-23T02:37:50.681Z,97.10
2022-12-23T02:38:50.704Z,97.52
2022-12-23T02:39:50.683Z,97.20
2022-12-23T02:40:51.674Z,97.20
2022-12-23T02:41:50.708Z,96.80
2022-12-23T02:42:50.691Z,96.90
2022-12-23T02:43:50.593Z,96.90
2022-12-23T02:44:50.683Z,96.80
2022-12-23T02:45:50.650Z,97.10
2022-12-23T02:46:51.303Z,97.10
2022-12-23T02:47:50.589Z,97.20
2022-12-23T02:48:50.581Z,97.20
2022-12-23T02:49:50.637Z,97.20
2022-12-23T02:50:50.597Z,97.20
2022-12-23T02:51:50.740Z,96.90
2022-12-23T02:52:50.577Z,96.69
2022-12-23T02:53:50.616Z,96.80
2022-12-23T02:54:50.576Z,96.90
2022-12-23T02:55:50.578Z,96.90
2022-12-23T02:56:50.580Z,96.90
2022-12-23T02:57:50.508Z,96.73
2022-12-23T02:58:50.490Z,97.00
2022-12-23T02:59:50.498Z,97.10
2022-12-23T03:00:50.549Z,97.20
2022-12-23T03:01:50.785Z,97.10
2022-12-23T03:02:50.670Z,97.00
2022-12-23T03:03:50.554Z,97.25
2022-12-23T03:04:50.416Z,97.56
2022-12-23T03:05:50.431Z,97.45
2022-12-23T03:06:50.474Z,97.77
2022-12-23T03:07:50.406Z,97.66
2022-12-23T03:08:50.395Z,97.77
2022-12-23T03:09:51.359Z,97.66
2022-12-23T03:10:50.323Z,97.45
2022-12-23T03:11:50.494Z,98.07
2022-12-23T03:12:50.364Z,97.77
2022-12-23T03:13:50.350Z,97.77
2022-12-23T03:14:50.361Z,97.87
2022-12-23T03:15:50.399Z,97.77
2022-12-23T03:16:50.336Z,97.87
2022-12-23T03:17:50.361Z,97.87
2022-12-23T03:18:50.442Z,97.97
2022-12-23T03:19:50.306Z,98.18
2022-12-23T03:20:50.352Z,97.97
2022-12-23T03:21:50.361Z,97.77
2022-12-23T03:22:50.400Z,97.77
2022-12-23T03:23:55.522Z,97.87
2022-12-23T03:24:51.259Z,97.97
2022-12-23T03:25:50.235Z,98.18
2022-12-23T03:26:50.248Z,97.97
2022-12-23T03:27:50.227Z,97.97
2022-12-23T03:28:50.312Z,97.77
2022-12-23T03:29:50.410Z,97.97
2022-12-23T03:30:50.347Z,97.87
2022-12-23T03:31:50.202Z,97.77
2022-12-23T03:32:50.137Z,97.66
2022-12-23T03:33:50.147Z,97.87
2022-12-23T03:34:50.266Z,97.87
2022-12-23T03:35:50.131Z,97.97
2022-12-23T03:36:50.144Z,97.97
2022-12-23T03:37:50.195Z,97.77
2022-12-23T03:38:50.251Z,97.87
2022-12-23T03:39:50.133Z,97.87
2022-12-23T03:40:50.129Z,97.87
2022-12-23T03:55:20.860Z,98.33
2022-12-23T03:56:21.110Z,98.33
2022-12-23T03:57:21.029Z,98.74
2022-12-23T03:58:20.964Z,98.84
2022-12-23T03:59:20.879Z,98.33
2022-12-23T04:00:20.770Z,98.22
2022-12-23T04:01:20.847Z,98.33
2022-12-23T04:02:20.889Z,98.33
2022-12-23T04:03:22.039Z,98.22
2022-12-23T04:04:22.174Z,98.53
2022-12-23T04:05:21.893Z,98.63
2022-12-23T04:06:21.928Z,98.63
2022-12-23T04:07:21.943Z,98.63
2022-12-23T04:08:22.034Z,98.63
2022-12-23T04:09:22.620Z,98.53
2022-12-23T04:10:21.954Z,98.02
2022-12-23T04:11:21.874Z,98.27
2022-12-23T04:12:21.994Z,98.43
2022-12-23T04:13:21.857Z,98.33
2022-12-23T04:14:21.834Z,98.47
2022-12-23T04:15:21.846Z,98.68
2022-12-23T04:16:21.864Z,98.27
2022-12-23T04:17:21.809Z,98.27
2022-12-23T04:18:21.824Z,98.68
2022-12-23T04:19:21.853Z,98.79
2022-12-23T04:20:22.017Z,98.37
2022-12-23T04:21:21.734Z,98.37
2022-12-23T04:22:22.548Z,98.37
2022-12-23T04:23:21.807Z,98.68
2022-12-23T04:24:22.120Z,98.88
2022-12-23T04:25:21.728Z,98.68
2022-12-23T04:26:21.691Z,98.88
2022-12-23T04:27:21.713Z,98.68
2022-12-23T04:28:21.688Z,98.68
2022-12-23T04:29:21.680Z,98.88
2022-12-23T04:30:21.762Z,98.68
2022-12-23T04:31:21.679Z,98.47
2022-12-23T04:32:21.719Z,98.58
2022-12-23T04:33:21.747Z,98.37
2022-12-23T04:34:21.674Z,98.37
2022-12-23T04:35:21.619Z,98.47
2022-12-23T04:36:21.847Z,98.37
2022-12-23T04:37:21.603Z,98.37
2022-12-23T04:38:21.596Z,98.37
2022-12-23T04:39:21.666Z,98.68
2022-12-23T04:40:22.402Z,98.99
2022-12-23T04:41:21.607Z,98.47
2022-12-23T04:42:21.651Z,98.99
2022-12-23T04:43:21.699Z,98.88
2022-12-23T04:44:21.615Z,98.79
2022-12-23T04:45:21.672Z,98.58
2022-12-23T04:46:21.639Z,98.68
2022-12-23T04:47:21.539Z,98.58
2022-12-23T04:48:21.531Z,98.88
2022-12-23T04:49:21.499Z,98.58
2022-12-23T04:50:21.591Z,98.58
2022-12-23T04:51:21.515Z,98.99
2022-12-23T04:52:22.081Z,98.94
2022-12-23T04:53:21.447Z,98.79
2022-12-23T04:54:21.537Z,98.88
2022-12-23T04:55:21.456Z,98.47
2022-12-23T04:56:21.514Z,98.74
2022-12-23T04:57:21.524Z,98.53
2022-12-23T04:58:21.394Z,98.68
2022-12-23T04:59:21.538Z,98.63
2022-12-23T05:00:21.360Z,98.53
2022-12-23T05:01:21.431Z,98.33
2022-12-23T05:02:21.630Z,98.33
2022-12-23T05:03:21.726Z,98.37
2022-12-23T05:04:21.477Z,98.27
2022-12-23T05:05:21.329Z,98.37
2022-12-23T05:06:21.542Z,98.27
2022-12-23T05:07:21.280Z,98.16
2022-12-23T05:08:21.373Z,97.86
2022-12-23T05:09:21.372Z,97.96
2022-12-23T05:10:21.337Z,97.96
2022-12-23T05:11:21.309Z,97.86
2022-12-23T05:12:21.312Z,97.86
2022-12-23T05:13:21.220Z,98.00
2022-12-23T05:14:21.311Z,97.86
2022-12-23T05:15:21.558Z,97.86
2022-12-23T05:16:21.299Z,97.86
2022-12-23T05:17:21.386Z,97.96
2022-12-23T05:18:21.219Z,97.86
2022-12-23T05:19:21.209Z,98.06
2022-12-23T05:20:21.315Z,97.65
2022-12-23T05:21:22.062Z,97.75
2022-12-23T05:22:21.267Z,98.06
2022-12-23T05:23:21.202Z,98.06
2022-12-23T05:24:21.138Z,98.27
2022-12-23T05:25:21.292Z,98.27
2022-12-23T05:26:22.200Z,98.47
2022-12-23T05:27:21.174Z,98.72
2022-12-23T05:28:21.107Z,98.37
2022-12-23T05:29:21.355Z,98.47
2022-12-23T05:30:21.256Z,98.37
2022-12-23T05:31:21.199Z,98.27
2022-12-23T05:32:21.235Z,98.43
2022-12-23T05:33:21.318Z,98.53
2022-12-23T05:34:21.087Z,98.58
2022-12-23T05:35:21.020Z,98.68
2022-12-23T05:36:21.089Z,98.47
2022-12-23T05:37:20.997Z,98.37
2022-12-23T05:38:21.007Z,98.47
2022-12-23T05:39:20.975Z,98.58
2022-12-23T05:40:24.287Z,98.47
2022-12-23T05:41:22.959Z,98.47
2022-12-23T05:42:20.984Z,98.68
2022-12-23T05:43:21.025Z,98.53
2022-12-23T05:44:20.928Z,98.88
2022-12-23T05:45:20.888Z,98.33
2022-12-23T05:46:26.241Z,98.53
2022-12-23T05:47:22.932Z,98.33
2022-12-23T05:48:20.957Z,98.22
2022-12-23T05:49:20.899Z,98.02
2022-12-23T05:50:20.874Z,97.71
2022-12-23T05:51:20.950Z,97.71
2022-12-23T05:52:20.926Z,97.25
2022-12-23T05:53:20.964Z,97.19
2022-12-23T05:54:20.820Z,97.45
2022-12-23T05:55:20.886Z,97.25
2022-12-23T05:56:20.830Z,97.15
2022-12-23T05:57:20.906Z,97.66
2022-12-23T05:58:20.978Z,97.15
2022-12-23T05:59:21.602Z,97.56
2022-12-23T06:00:21.039Z,97.56
2022-12-23T06:01:20.734Z,97.36
2022-12-23T06:02:20.893Z,97.45
2022-12-23T06:03:21.122Z,97.25
2022-12-23T06:04:20.823Z,97.50
2022-12-23T06:05:20.755Z,97.30
2022-12-23T06:06:20.704Z,97.61
2022-12-23T06:07:20.716Z,97.50
2022-12-23T06:08:20.695Z,97.40
2022-12-23T06:09:20.808Z,97.50
2022-12-23T06:10:20.705Z,97.56
2022-12-23T06:11:20.706Z,97.66
2022-12-23T06:12:20.796Z,97.71
2022-12-23T06:13:20.649Z,97.71
2022-12-23T06:14:26.818Z,97.77
2022-12-23T06:15:22.675Z,97.66
2022-12-23T06:16:20.664Z,97.56
2022-12-23T06:17:20.635Z,97.81
2022-12-23T06:18:20.633Z,97.66
2022-12-23T06:19:20.603Z,97.25
2022-12-23T06:20:21.281Z,97.56
2022-12-23T06:21:22.442Z,97.87
2022-12-23T06:22:20.526Z,97.87
2022-12-23T06:23:20.606Z,97.97
2022-12-23T06:24:20.570Z,98.07
2022-12-23T06:25:20.528Z,97.87
2022-12-23T06:26:21.542Z,97.77
2022-12-23T06:27:20.488Z,97.97
2022-12-23T06:28:20.465Z,97.87
2022-12-23T06:29:20.504Z,97.97
2022-12-23T06:30:20.694Z,98.18
2022-12-23T06:31:20.629Z,98.18
2022-12-23T06:32:20.463Z,98.12
2022-12-23T06:33:20.444Z,98.28
2022-12-23T06:34:20.455Z,98.18
2022-12-23T06:35:20.478Z,98.28
2022-12-23T06:36:20.388Z,98.28
2022-12-23T06:37:20.400Z,98.07
2022-12-23T06:38:21.428Z,98.28
2022-12-23T06:39:20.413Z,97.97
2022-12-23T06:40:20.379Z,98.28
2022-12-23T06:41:20.348Z,98.28
2022-12-23T06:42:20.336Z,98.38
2022-12-23T06:43:20.415Z,98.38
2022-12-23T06:44:20.350Z,98.22
2022-12-23T06:45:20.320Z,98.18
2022-12-23T06:46:20.344Z,98.38
2022-12-23T06:47:20.394Z,98.38
2022-12-23T06:48:20.296Z,98.28
2022-12-23T06:49:20.525Z,97.97
2022-12-23T06:50:20.291Z,97.97
2022-12-23T06:51:21.258Z,98.07
2022-12-23T06:52:20.273Z,97.45
2022-12-23T06:53:20.256Z,97.10
2022-12-23T06:54:20.264Z,97.52
2022-12-23T06:55:20.242Z,97.41
2022-12-23T06:56:20.404Z,97.10
2022-12-23T06:57:20.221Z,97.05
2022-12-23T06:58:20.253Z,96.84
2022-12-23T06:59:20.284Z,96.80
2022-12-23T07:00:20.143Z,96.73
2022-12-23T07:01:20.273Z,96.84
2022-12-23T07:02:20.375Z,96.90
2022-12-23T07:03:20.320Z,96.90
2022-12-23T07:04:20.396Z,97.20
2022-12-23T07:05:20.243Z,97.20
2022-12-23T07:06:20.140Z,96.80
2022-12-23T07:07:20.407Z,96.80
2022-12-23T07:08:21.054Z,96.59
2022-12-23T07:09:20.159Z,96.48
2022-12-23T07:10:20.093Z,96.69
2022-12-23T07:11:20.129Z,95.97
2022-12-23T07:12:20.086Z,96.23
2022-12-23T07:13:20.023Z,96.18
2022-12-23T07:14:20.040Z,96.08
2022-12-23T07:15:20.144Z,96.39
2022-12-23T07:16:20.118Z,96.18
2022-12-23T07:17:20.007Z,96.08
2022-12-23T07:18:20.027Z,96.48
2022-12-23T07:19:20.077Z,96.39
2022-12-23T07:20:20.063Z,96.18
2022-12-23T07:21:28.544Z,96.28
2022-12-23T07:22:22.003Z,96.18
2022-12-23T07:23:19.976Z,95.87
2022-12-23T07:24:19.951Z,96.14
2022-12-23T07:25:19.885Z,95.72
2022-12-23T07:26:20.063Z,96.18
2022-12-23T07:27:19.910Z,96.08
2022-12-23T07:28:19.938Z,96.28
2022-12-23T07:29:19.938Z,96.39
2022-12-23T07:30:19.850Z,96.08
2022-12-23T07:31:19.948Z,95.56
2022-12-23T07:32:19.869Z,95.56
2022-12-23T07:33:20.321Z,96.08
2022-12-23T07:34:19.928Z,96.18
2022-12-23T07:35:19.902Z,96.18
2022-12-23T07:36:19.857Z,96.28
2022-12-23T07:37:19.798Z,96.69
2022-12-23T07:38:19.882Z,96.80
2022-12-23T07:39:19.755Z,96.59
2022-12-23T07:40:19.907Z,96.80
2022-12-23T07:41:19.780Z,96.59
2022-12-23T07:42:46.662Z,96.69
2022-12-23T07:43:21.747Z,96.48
2022-12-23T07:44:19.829Z,96.90
2022-12-23T07:45:20.645Z,96.80
2022-12-23T07:46:19.808Z,96.80
2022-12-23T07:47:19.750Z,96.48
2022-12-23T07:48:19.761Z,96.69
2022-12-23T07:49:19.788Z,96.39
2022-12-23T07:50:19.633Z,96.18
2022-12-23T07:51:19.711Z,96.18
2022-12-23T07:52:19.790Z,96.08
2022-12-23T07:53:19.644Z,96.18
2022-12-23T07:54:19.671Z,95.56
2022-12-23T07:55:19.662Z,96.08
2022-12-23T07:56:19.575Z,96.18
2022-12-23T07:57:19.688Z,95.97
2022-12-23T07:58:19.688Z,96.18
2022-12-23T07:59:19.627Z,96.28
2022-12-23T08:00:19.619Z,95.56
2022-12-23T08:01:19.610Z,96.08
2022-12-23T08:02:19.800Z,96.08
2022-12-23T08:03:19.683Z,96.08
2022-12-23T08:04:19.635Z,96.08
2022-12-23T08:05:19.721Z,96.08
2022-12-23T08:06:19.512Z,96.08
2022-12-23T08:07:19.501Z,96.08
2022-12-23T08:08:19.540Z,96.08
2022-12-23T08:09:19.470Z,96.28
2022-12-23T08:10:19.531Z,96.08
2022-12-23T08:11:19.517Z,96.18
2022-12-23T08:12:19.571Z,96.90
2022-12-23T08:13:19.446Z,96.69
2022-12-23T08:14:19.523Z,96.59
2022-12-23T08:15:20.632Z,96.80
2022-12-23T08:16:19.497Z,96.69
2022-12-23T08:17:19.654Z,96.18
2022-12-23T08:18:19.443Z,96.90
2022-12-23T08:19:19.414Z,96.59
2022-12-23T08:20:19.407Z,96.03
2022-12-23T08:21:19.379Z,95.52
2022-12-23T08:22:19.452Z,95.83
2022-12-23T08:23:24.516Z,95.52
2022-12-23T08:24:24.583Z,95.62
2022-12-23T08:25:19.340Z,95.62
2022-12-23T08:26:19.292Z,95.10
2022-12-23T08:27:19.339Z,94.96
2022-12-23T08:28:19.252Z,95.21
2022-12-23T08:29:20.535Z,95.01
2022-12-23T08:30:19.268Z,95.21
2022-12-23T08:31:19.342Z,95.06
2022-12-23T08:32:19.233Z,94.85
2022-12-23T08:33:19.244Z,95.17
2022-12-23T08:34:19.248Z,95.17
2022-12-23T08:35:19.203Z,95.17
2022-12-23T08:36:22.833Z,94.96
2022-12-23T08:37:20.218Z,94.76
2022-12-23T08:38:19.209Z,94.76
2022-12-23T08:39:19.204Z,94.96
2022-12-23T08:40:19.160Z,94.71
2022-12-23T08:41:19.153Z,94.96
2022-12-23T08:42:19.120Z,94.34
2022-12-23T08:43:19.111Z,93.99
2022-12-23T08:44:19.137Z,93.79
2022-12-23T08:45:19.166Z,93.38
2022-12-23T08:46:19.184Z,93.38
2022-12-23T08:47:19.094Z,93.48
2022-12-23T08:48:19.082Z,93.27
2022-12-23T08:49:19.064Z,93.38
2022-12-23T08:50:19.121Z,93.38
2022-12-23T08:51:19.156Z,93.27
2022-12-23T08:52:19.049Z,93.68
2022-12-23T08:53:19.038Z,93.48
2022-12-23T08:54:19.222Z,93.79
2022-12-23T08:55:19.039Z,93.99
2022-12-23T08:56:18.980Z,93.89
2022-12-23T08:57:20.026Z,93.89
2022-12-23T08:58:19.034Z,95.02
2022-12-23T08:59:19.929Z,94.71
2022-12-23T09:00:19.947Z,94.81
2022-12-23T09:01:20.156Z,94.92
2022-12-23T09:02:19.091Z,94.92
2022-12-23T09:03:19.011Z,94.92
2022-12-23T09:04:18.927Z,94.85
2022-12-23T09:05:18.951Z,94.71
2022-12-23T09:06:23.213Z,94.71
2022-12-23T11:44:49.947Z,93.08
2022-12-23T11:45:50.098Z,93.19
2022-12-23T11:46:49.950Z,92.47
2022-12-23T11:47:50.104Z,93.02
2022-12-23T11:48:54.551Z,92.27
2022-12-23T11:49:50.817Z,92.68
2022-12-23T11:50:49.832Z,92.88
2022-12-23T11:51:49.843Z,92.98
2022-12-23T11:52:51.009Z,92.47
2022-12-23T11:53:50.944Z,92.88
2022-12-23T11:54:54.442Z,92.16
2022-12-23T11:55:51.905Z,92.68
2022-12-23T11:56:51.002Z,92.68
2022-12-23T11:57:51.049Z,92.78
2022-12-23T11:58:51.012Z,92.82
2022-12-23T11:59:50.972Z,92.78
2022-12-23T12:00:55.621Z,92.72
2022-12-23T12:01:52.960Z,92.57
2022-12-23T12:02:51.058Z,92.41
2022-12-23T12:03:50.908Z,92.98
2022-12-23T12:04:50.829Z,92.78
2022-12-23T12:05:50.879Z,92.93
2022-12-23T12:06:56.071Z,92.93
2022-12-23T12:07:52.837Z,92.82
2022-12-23T12:08:50.950Z,92.82
2022-12-23T12:09:50.802Z,92.93
2022-12-23T12:10:50.765Z,93.33
2022-12-23T12:11:50.757Z,92.82
2022-12-23T12:12:54.658Z,92.61
2022-12-23T12:13:51.713Z,92.82
2022-12-23T12:14:50.786Z,93.13
2022-12-23T12:15:50.846Z,92.72
2022-12-23T12:16:50.811Z,92.93
2022-12-23T12:17:50.744Z,92.72
2022-12-23T12:18:55.429Z,92.93
2022-12-23T12:19:52.704Z,92.93
2022-12-23T12:20:50.808Z,93.13
2022-12-23T12:21:50.680Z,93.13
2022-12-23T12:22:50.683Z,92.93
2022-12-23T12:23:55.462Z,92.82
2022-12-23T12:24:52.647Z,92.78
2022-12-23T12:25:50.691Z,93.02
2022-12-23T12:26:50.642Z,92.78
2022-12-23T12:27:50.645Z,92.68
2022-12-23T12:28:50.661Z,93.19
2022-12-23T12:29:51.100Z,93.08
2022-12-23T12:30:50.662Z,92.88
2022-12-23T12:31:50.574Z,92.16
2022-12-23T12:32:50.622Z,92.36
2022-12-23T12:33:50.612Z,92.61
2022-12-23T12:34:50.527Z,92.36
2022-12-23T12:35:53.666Z,92.41
2022-12-23T12:36:51.581Z,92.31
2022-12-23T12:37:51.515Z,92.27
2022-12-23T12:38:50.497Z,92.51
2022-12-23T12:39:50.482Z,92.51
2022-12-23T12:40:50.634Z,92.61
2022-12-23T12:41:50.482Z,92.16
2022-12-23T12:42:50.452Z,92.31
2022-12-23T12:43:50.496Z,92.61
2022-12-23T12:44:50.438Z,92.82
2022-12-23T12:45:50.499Z,93.02
2022-12-23T12:46:50.457Z,92.41
2022-12-23T12:47:55.216Z,92.82
2022-12-23T12:48:52.509Z,92.82
2022-12-23T12:53:29.782Z,92.46
2022-12-23T12:54:32.042Z,92.41
2022-12-23T13:02:02.015Z,92.61
2022-12-23T13:03:03.423Z,92.76
2022-12-23T13:04:04.187Z,92.35
2022-12-23T13:05:03.161Z,92.46
2022-12-23T13:06:03.092Z,92.31
2022-12-23T13:07:03.131Z,92.46
2022-12-23T13:08:03.085Z,92.46
2022-12-23T13:09:03.089Z,92.21
2022-12-23T13:10:03.037Z,92.35
2022-12-23T13:11:03.053Z,92.31
2022-12-23T13:12:03.175Z,92.31
2022-12-23T13:13:03.045Z,92.31
2022-12-23T13:14:03.220Z,92.41
2022-12-23T13:15:03.399Z,92.21
2022-12-23T13:16:03.082Z,92.51
2022-12-23T13:17:03.205Z,92.51
2022-12-23T13:18:03.940Z,92.51
2022-12-23T13:19:04.100Z,92.61
2022-12-23T13:20:03.043Z,92.10
2022-12-23T13:21:03.096Z,91.49
2022-12-23T13:24:17.895Z,91.65
2022-12-23T13:25:17.866Z,91.55
2022-12-23T13:26:18.059Z,91.35
2022-12-23T13:27:17.949Z,90.62
2022-12-23T13:28:18.995Z,91.30
2022-12-23T13:29:18.833Z,91.30
2022-12-23T13:30:18.884Z,90.99
2022-12-23T13:31:18.951Z,90.93
2022-12-23T13:32:18.875Z,90.99
2022-12-23T13:33:18.784Z,91.40
2022-12-23T13:34:18.818Z,90.83
2022-12-23T13:35:19.299Z,91.35
2022-12-23T13:36:18.863Z,91.55
2022-12-23T13:37:18.801Z,91.96
2022-12-23T13:38:18.735Z,91.86
2022-12-23T13:39:18.724Z,92.36
2022-12-23T13:40:18.745Z,92.47
2022-12-23T13:41:18.791Z,92.57
2022-12-23T13:42:18.725Z,92.21
2022-12-23T13:43:18.722Z,92.41
2022-12-23T13:44:18.804Z,93.44
2022-12-23T13:45:18.696Z,93.23
2022-12-23T13:46:18.746Z,93.44
2022-12-23T13:47:18.674Z,93.13
2022-12-23T13:48:18.642Z,93.54
2022-12-23T13:49:18.652Z,93.64
2022-12-23T13:50:18.619Z,93.89
2022-12-23T13:51:18.635Z,95.12
2022-12-23T13:52:18.657Z,94.81
2022-12-23T13:53:18.642Z,95.23
2022-12-23T13:54:18.579Z,95.12
2022-12-23T13:55:18.549Z,95.02
2022-12-23T13:56:18.586Z,94.85
2022-12-23T13:57:18.564Z,95.57
2022-12-23T13:58:18.602Z,95.68
2022-12-23T13:59:18.567Z,95.57
2022-12-23T14:00:18.633Z,95.47
2022-12-23T14:01:18.650Z,95.31
2022-12-23T14:02:18.568Z,95.21
2022-12-23T14:03:18.596Z,95.68
2022-12-23T14:04:19.467Z,95.98
2022-12-23T14:05:18.481Z,95.89
2022-12-23T14:06:18.511Z,95.31
2022-12-23T14:07:18.856Z,95.93
2022-12-23T14:08:18.493Z,95.89
2022-12-23T14:09:18.437Z,95.37
2022-12-23T14:10:18.454Z,95.47
2022-12-23T14:11:18.447Z,95.17
2022-12-23T14:12:19.321Z,95.68
2022-12-23T14:13:18.424Z,95.68
2022-12-23T14:14:18.365Z,95.27
2022-12-23T14:15:18.385Z,95.37
2022-12-23T14:16:18.457Z,95.47
2022-12-23T14:17:18.334Z,95.78
2022-12-23T14:18:18.449Z,95.78
2022-12-23T14:19:18.534Z,95.53
2022-12-23T14:20:18.299Z,95.37
2022-12-23T14:21:18.480Z,95.37
2022-12-23T14:22:18.303Z,95.89
2022-12-23T14:23:18.432Z,95.47
2022-12-23T14:24:18.321Z,95.17
2022-12-23T14:25:18.611Z,95.43
2022-12-23T14:26:18.732Z,95.57
2022-12-23T14:27:18.242Z,95.64
2022-12-23T14:28:18.293Z,95.57
2022-12-23T14:29:18.644Z,95.43
2022-12-23T14:30:18.536Z,95.68
2022-12-23T14:31:18.312Z,95.89
2022-12-23T14:32:18.359Z,95.68
2022-12-23T14:33:18.802Z,95.68
2022-12-23T14:34:18.317Z,95.68
2022-12-23T14:35:19.874Z,96.09
2022-12-23T14:36:18.225Z,96.30
2022-12-23T14:37:21.901Z,96.40
2022-12-23T14:38:18.335Z,96.40
2022-12-23T14:40:48.747Z,96.55
2022-12-23T14:41:50.651Z,96.85
2022-12-23T14:42:48.941Z,97.06
2022-12-23T14:43:48.768Z,97.47
2022-12-23T14:44:49.218Z,97.67
2022-12-23T14:45:48.656Z,97.78
2022-12-23T14:46:48.719Z,97.57
2022-12-23T14:47:48.753Z,97.37
2022-12-23T14:48:48.634Z,97.47
2022-12-23T14:49:48.877Z,97.67
2022-12-23T14:50:48.871Z,97.32
2022-12-23T14:51:48.675Z,97.32
2022-12-23T14:55:57.787Z,96.50
2022-12-23T14:56:57.979Z,96.40
2022-12-23T14:58:01.906Z,96.60
2022-12-23T14:59:00.823Z,96.15
2022-12-23T15:00:11.705Z,96.15
2022-12-23T15:00:59.221Z,96.04
2022-12-23T15:01:58.863Z,95.94
2022-12-23T15:02:58.930Z,95.64
2022-12-23T15:04:01.537Z,95.32
2022-12-23T15:04:59.804Z,95.78
2022-12-23T15:05:58.906Z,95.74
2022-12-23T15:06:58.807Z,95.64
2022-12-23T15:07:58.848Z,95.32
2022-12-23T15:08:58.796Z,95.64
2022-12-23T15:10:01.015Z,95.17
2022-12-23T15:10:59.711Z,95.74
2022-12-23T15:11:58.800Z,95.43
2022-12-23T15:12:58.684Z,95.74
2022-12-23T15:13:58.727Z,95.74
2022-12-23T15:14:58.737Z,95.43
2022-12-23T15:16:01.718Z,95.43
2022-12-23T15:16:59.690Z,94.85
2022-12-23T15:17:58.696Z,95.06
2022-12-23T15:18:58.692Z,95.47
2022-12-23T15:19:58.619Z,95.98
2022-12-23T15:20:58.642Z,95.89
2022-12-23T15:22:08.843Z,95.37
2022-12-23T15:23:00.616Z,95.47
2022-12-23T15:23:58.583Z,95.47
2022-12-23T15:24:58.623Z,95.89
2022-12-23T15:25:58.618Z,95.47
2022-12-23T15:27:25.475Z,96.09
2022-12-23T15:28:02.145Z,95.98
2022-12-23T15:28:59.825Z,95.98
2022-12-23T15:29:59.067Z,96.04
2022-12-23T15:30:58.642Z,95.74
2022-12-23T15:31:58.605Z,95.53
2022-12-23T15:32:58.507Z,95.78
2022-12-23T15:34:03.947Z,95.74
2022-12-23T15:35:00.808Z,95.43
2022-12-23T15:35:58.633Z,95.53
2022-12-23T15:36:58.446Z,95.47
2022-12-23T15:37:58.456Z,95.98
2022-12-23T15:38:58.478Z,95.98
2022-12-23T15:40:09.302Z,96.09
2022-12-23T15:41:00.459Z,95.78
2022-12-23T15:41:58.450Z,95.89
2022-12-23T15:42:58.520Z,95.98
2022-12-23T15:43:58.492Z,95.84
2022-12-23T15:44:58.422Z,95.84
2022-12-23T15:45:58.394Z,96.09
2022-12-23T15:46:58.550Z,96.19
2022-12-23T15:47:58.994Z,95.94
2022-12-23T15:48:58.490Z,95.74
2022-12-23T15:49:58.334Z,95.57
2022-12-23T15:50:58.361Z,95.37
2022-12-23T15:52:07.902Z,95.37
2022-12-23T15:53:00.302Z,95.37
2022-12-23T15:53:58.327Z,95.47
2022-12-23T15:54:58.365Z,95.37
2022-12-23T15:55:58.300Z,95.68
2022-12-23T15:56:58.297Z,95.47
2022-12-23T15:57:58.237Z,95.68
2022-12-23T15:58:58.390Z,95.78
2022-12-23T15:59:58.316Z,95.47
2022-12-23T16:00:58.168Z,95.68